sensor_id;sensor_type;location;lat;lon;timestamp;pressure;altitude;pressure_sealevel;temperature;humidity
60874;BME280;46715;40.642;-7.920;2023-08-08T00:00:30;95913.81;;;25.75;32.43
60874;BME280;46715;40.642;-7.920;2023-08-08T00:02:31;95922.16;;;25.74;32.50
60874;BME280;46715;40.642;-7.920;2023-08-08T00:04:31;95922.94;;;25.67;32.83
60874;BME280;46715;40.642;-7.920;2023-08-08T00:06:32;95917.94;;;25.62;32.89
60874;BME280;46715;40.642;-7.920;2023-08-08T00:08:32;95915.97;;;25.55;33.51
60874;BME280;46715;40.642;-7.920;2023-08-08T00:10:33;95916.31;;;25.46;34.47
60874;BME280;46715;40.642;-7.920;2023-08-08T00:12:33;95921.63;;;25.39;35.20
60874;BME280;46715;40.642;-7.920;2023-08-08T00:14:34;95917.34;;;25.31;36.49
60874;BME280;46715;40.642;-7.920;2023-08-08T00:16:42;95921.47;;;25.21;36.44
60874;BME280;46715;40.642;-7.920;2023-08-08T00:18:42;95918.34;;;25.12;36.66
60874;BME280;46715;40.642;-7.920;2023-08-08T00:20:43;95917.53;;;25.04;36.33
60874;BME280;46715;40.642;-7.920;2023-08-08T00:22:43;95918.25;;;24.97;36.36
60874;BME280;46715;40.642;-7.920;2023-08-08T00:24:44;95922.75;;;24.90;36.50
60874;BME280;46715;40.642;-7.920;2023-08-08T00:26:44;95911.63;;;24.80;36.22
60874;BME280;46715;40.642;-7.920;2023-08-08T00:28:45;95917.31;;;24.79;36.51
60874;BME280;46715;40.642;-7.920;2023-08-08T00:30:45;95918.81;;;24.76;35.47
60874;BME280;46715;40.642;-7.920;2023-08-08T00:32:46;95915.78;;;24.74;35.39
60874;BME280;46715;40.642;-7.920;2023-08-08T00:34:46;95912.69;;;24.72;35.71
60874;BME280;46715;40.642;-7.920;2023-08-08T00:36:47;95911.56;;;24.73;35.55
60874;BME280;46715;40.642;-7.920;2023-08-08T00:38:47;95906.56;;;24.68;36.00
60874;BME280;46715;40.642;-7.920;2023-08-08T00:40:49;95909.22;;;24.68;35.83
60874;BME280;46715;40.642;-7.920;2023-08-08T00:42:51;95904.25;;;24.66;36.00
60874;BME280;46715;40.642;-7.920;2023-08-08T00:44:51;95907.66;;;24.63;36.01
60874;BME280;46715;40.642;-7.920;2023-08-08T00:46:52;95904.53;;;24.58;35.86
60874;BME280;46715;40.642;-7.920;2023-08-08T00:48:52;95898.41;;;24.54;35.87
60874;BME280;46715;40.642;-7.920;2023-08-08T00:50:54;95899.91;;;24.51;36.00
60874;BME280;46715;40.642;-7.920;2023-08-08T00:52:54;95899.09;;;24.47;35.41
60874;BME280;46715;40.642;-7.920;2023-08-08T00:54:55;95897.56;;;24.46;35.48
60874;BME280;46715;40.642;-7.920;2023-08-08T00:57:03;95894.09;;;24.42;35.62
60874;BME280;46715;40.642;-7.920;2023-08-08T00:59:03;95888.00;;;24.38;35.61
60874;BME280;46715;40.642;-7.920;2023-08-08T01:01:04;95893.28;;;24.34;36.85
60874;BME280;46715;40.642;-7.920;2023-08-08T01:03:04;95897.44;;;24.31;36.35
60874;BME280;46715;40.642;-7.920;2023-08-08T01:05:05;95896.63;;;24.27;36.20
60874;BME280;46715;40.642;-7.920;2023-08-08T01:07:14;95894.34;;;24.26;36.02
60874;BME280;46715;40.642;-7.920;2023-08-08T01:09:19;95893.16;;;24.23;36.69
60874;BME280;46715;40.642;-7.920;2023-08-08T01:11:21;95902.22;;;24.15;36.84
60874;BME280;46715;40.642;-7.920;2023-08-08T01:13:23;95887.31;;;24.10;36.28
60874;BME280;46715;40.642;-7.920;2023-08-08T01:15:24;95886.53;;;24.06;36.47
60874;BME280;46715;40.642;-7.920;2023-08-08T01:17:29;95890.34;;;24.09;37.09
60874;BME280;46715;40.642;-7.920;2023-08-08T01:19:30;95891.44;;;24.04;37.26
60874;BME280;46715;40.642;-7.920;2023-08-08T01:21:31;95892.47;;;23.96;37.71
60874;BME280;46715;40.642;-7.920;2023-08-08T01:23:34;95889.38;;;23.90;37.28
60874;BME280;46715;40.642;-7.920;2023-08-08T01:25:41;95888.97;;;23.88;36.24
60874;BME280;46715;40.642;-7.920;2023-08-08T01:27:43;95884.75;;;23.87;36.21
60874;BME280;46715;40.642;-7.920;2023-08-08T01:29:43;95879.41;;;23.87;36.58
60874;BME280;46715;40.642;-7.920;2023-08-08T01:31:44;95872.53;;;23.82;36.87
60874;BME280;46715;40.642;-7.920;2023-08-08T01:33:44;95876.69;;;23.80;36.95
60874;BME280;46715;40.642;-7.920;2023-08-08T01:35:47;95872.81;;;23.74;37.09
60874;BME280;46715;40.642;-7.920;2023-08-08T01:37:52;95869.69;;;23.68;36.72
60874;BME280;46715;40.642;-7.920;2023-08-08T01:39:53;95875.38;;;23.66;36.77
60874;BME280;46715;40.642;-7.920;2023-08-08T01:41:54;95874.31;;;23.71;35.83
60874;BME280;46715;40.642;-7.920;2023-08-08T01:43:56;95877.72;;;23.72;35.70
60874;BME280;46715;40.642;-7.920;2023-08-08T01:45:59;95873.56;;;23.74;35.82
60874;BME280;46715;40.642;-7.920;2023-08-08T01:48:03;95865.16;;;23.72;36.39
60874;BME280;46715;40.642;-7.920;2023-08-08T01:50:06;95873.88;;;23.69;36.65
60874;BME280;46715;40.642;-7.920;2023-08-08T01:52:08;95878.03;;;23.66;36.48
60874;BME280;46715;40.642;-7.920;2023-08-08T01:54:08;95872.72;;;23.66;36.11
60874;BME280;46715;40.642;-7.920;2023-08-08T01:56:09;95868.53;;;23.65;36.03
60874;BME280;46715;40.642;-7.920;2023-08-08T01:58:10;95873.44;;;23.63;36.01
60874;BME280;46715;40.642;-7.920;2023-08-08T02:00:11;95874.63;;;23.66;35.66
60874;BME280;46715;40.642;-7.920;2023-08-08T02:02:18;95871.63;;;23.71;35.34
60874;BME280;46715;40.642;-7.920;2023-08-08T02:04:19;95868.25;;;23.74;35.47
60874;BME280;46715;40.642;-7.920;2023-08-08T02:06:20;95875.56;;;23.81;34.79
60874;BME280;46715;40.642;-7.920;2023-08-08T02:08:20;95863.44;;;23.83;34.84
60874;BME280;46715;40.642;-7.920;2023-08-08T02:10:21;95866.94;;;23.88;34.19
60874;BME280;46715;40.642;-7.920;2023-08-08T02:12:21;95863.09;;;23.89;34.00
60874;BME280;46715;40.642;-7.920;2023-08-08T02:14:22;95866.59;;;23.93;33.89
60874;BME280;46715;40.642;-7.920;2023-08-08T02:16:23;95862.03;;;23.93;34.14
60874;BME280;46715;40.642;-7.920;2023-08-08T02:18:27;95867.38;;;23.97;33.65
60874;BME280;46715;40.642;-7.920;2023-08-08T02:20:27;95870.09;;;24.00;33.77
60874;BME280;46715;40.642;-7.920;2023-08-08T02:22:28;95868.63;;;24.03;33.70
60874;BME280;46715;40.642;-7.920;2023-08-08T02:24:30;95863.69;;;24.05;33.21
60874;BME280;46715;40.642;-7.920;2023-08-08T02:26:30;95861.44;;;24.11;33.01
60874;BME280;46715;40.642;-7.920;2023-08-08T02:28:31;95861.56;;;24.22;32.54
60874;BME280;46715;40.642;-7.920;2023-08-08T02:30:32;95864.72;;;24.34;31.55
60874;BME280;46715;40.642;-7.920;2023-08-08T02:32:32;95861.78;;;24.47;31.31
60874;BME280;46715;40.642;-7.920;2023-08-08T02:34:33;95864.56;;;24.58;31.25
60874;BME280;46715;40.642;-7.920;2023-08-08T02:36:33;95882.91;;;24.63;31.72
60874;BME280;46715;40.642;-7.920;2023-08-08T02:38:35;95877.59;;;24.66;31.65
60874;BME280;46715;40.642;-7.920;2023-08-08T02:40:36;95869.66;;;24.70;31.32
60874;BME280;46715;40.642;-7.920;2023-08-08T02:42:36;95872.31;;;24.70;31.58
60874;BME280;46715;40.642;-7.920;2023-08-08T02:44:37;95874.56;;;24.68;32.01
60874;BME280;46715;40.642;-7.920;2023-08-08T02:46:38;95877.53;;;24.59;32.25
60874;BME280;46715;40.642;-7.920;2023-08-08T02:48:40;95878.22;;;24.52;32.22
60874;BME280;46715;40.642;-7.920;2023-08-08T02:50:41;95872.50;;;24.50;32.03
60874;BME280;46715;40.642;-7.920;2023-08-08T02:52:41;95872.47;;;24.47;32.34
60874;BME280;46715;40.642;-7.920;2023-08-08T02:54:42;95869.72;;;24.40;32.36
60874;BME280;46715;40.642;-7.920;2023-08-08T02:56:43;95867.03;;;24.36;32.67
60874;BME280;46715;40.642;-7.920;2023-08-08T02:58:45;95872.28;;;24.29;32.62
60874;BME280;46715;40.642;-7.920;2023-08-08T03:00:45;95869.31;;;24.34;31.79
60874;BME280;46715;40.642;-7.920;2023-08-08T03:02:48;95869.88;;;24.58;30.56
60874;BME280;46715;40.642;-7.920;2023-08-08T03:04:50;95862.13;;;24.83;29.80
60874;BME280;46715;40.642;-7.920;2023-08-08T03:06:50;95866.09;;;25.04;29.68
60874;BME280;46715;40.642;-7.920;2023-08-08T03:08:51;95867.69;;;25.19;29.67
60874;BME280;46715;40.642;-7.920;2023-08-08T03:10:51;95864.69;;;25.28;29.56
60874;BME280;46715;40.642;-7.920;2023-08-08T03:12:52;95867.84;;;25.33;29.31
60874;BME280;46715;40.642;-7.920;2023-08-08T03:14:54;95869.00;;;25.40;29.30
60874;BME280;46715;40.642;-7.920;2023-08-08T03:16:56;95870.16;;;25.42;29.41
60874;BME280;46715;40.642;-7.920;2023-08-08T03:18:57;95868.63;;;25.41;29.42
60874;BME280;46715;40.642;-7.920;2023-08-08T03:20:57;95865.56;;;25.43;29.29
60874;BME280;46715;40.642;-7.920;2023-08-08T03:22:58;95870.16;;;25.46;29.37
60874;BME280;46715;40.642;-7.920;2023-08-08T03:24:58;95870.16;;;25.46;29.47
60874;BME280;46715;40.642;-7.920;2023-08-08T03:26:59;95878.53;;;25.44;29.69
60874;BME280;46715;40.642;-7.920;2023-08-08T03:29:00;95869.06;;;25.50;29.33
60874;BME280;46715;40.642;-7.920;2023-08-08T03:31:07;95871.34;;;25.52;29.03
60874;BME280;46715;40.642;-7.920;2023-08-08T03:33:08;95867.94;;;25.51;29.27
60874;BME280;46715;40.642;-7.920;2023-08-08T03:35:09;95872.09;;;25.49;29.53
60874;BME280;46715;40.642;-7.920;2023-08-08T03:37:11;95865.97;;;25.48;29.28
60874;BME280;46715;40.642;-7.920;2023-08-08T03:39:12;95868.25;;;25.43;29.80
60874;BME280;46715;40.642;-7.920;2023-08-08T03:41:13;95870.88;;;25.35;30.07
60874;BME280;46715;40.642;-7.920;2023-08-08T03:43:13;95871.91;;;25.24;30.91
60874;BME280;46715;40.642;-7.920;2023-08-08T03:45:14;95874.50;;;25.09;31.02
60874;BME280;46715;40.642;-7.920;2023-08-08T03:47:14;95878.59;;;24.96;31.11
60874;BME280;46715;40.642;-7.920;2023-08-08T03:49:15;95880.81;;;24.87;31.19
60874;BME280;46715;40.642;-7.920;2023-08-08T03:51:16;95878.44;;;24.78;31.58
60874;BME280;46715;40.642;-7.920;2023-08-08T03:53:17;95889.00;;;24.63;33.26
60874;BME280;46715;40.642;-7.920;2023-08-08T03:55:18;95886.09;;;24.38;33.58
60874;BME280;46715;40.642;-7.920;2023-08-08T03:57:18;95882.94;;;24.29;33.27
60874;BME280;46715;40.642;-7.920;2023-08-08T03:59:19;95887.34;;;24.14;34.30
60874;BME280;46715;40.642;-7.920;2023-08-08T04:01:20;95887.56;;;23.98;34.74
60874;BME280;46715;40.642;-7.920;2023-08-08T04:03:21;95885.84;;;23.82;33.93
60874;BME280;46715;40.642;-7.920;2023-08-08T04:05:21;95885.75;;;23.75;33.97
60874;BME280;46715;40.642;-7.920;2023-08-08T04:07:22;95887.97;;;23.70;34.41
60874;BME280;46715;40.642;-7.920;2023-08-08T04:09:23;95897.34;;;23.60;35.74
60874;BME280;46715;40.642;-7.920;2023-08-08T04:11:23;95896.84;;;23.51;35.82
60874;BME280;46715;40.642;-7.920;2023-08-08T04:13:24;95904.69;;;23.40;37.14
60874;BME280;46715;40.642;-7.920;2023-08-08T04:15:25;95891.22;;;23.29;38.22
60874;BME280;46715;40.642;-7.920;2023-08-08T04:17:26;95897.94;;;23.19;38.29
60874;BME280;46715;40.642;-7.920;2023-08-08T04:19:27;95893.97;;;23.09;38.27
60874;BME280;46715;40.642;-7.920;2023-08-08T04:21:27;95896.88;;;23.01;38.15
60874;BME280;46715;40.642;-7.920;2023-08-08T04:23:29;95896.75;;;22.93;38.12
60874;BME280;46715;40.642;-7.920;2023-08-08T04:25:29;95894.09;;;22.93;37.29
60874;BME280;46715;40.642;-7.920;2023-08-08T04:27:30;95891.50;;;22.97;37.51
60874;BME280;46715;40.642;-7.920;2023-08-08T04:29:30;95888.44;;;22.95;37.29
60874;BME280;46715;40.642;-7.920;2023-08-08T04:31:31;95886.16;;;22.97;38.17
60874;BME280;46715;40.642;-7.920;2023-08-08T04:33:31;95890.72;;;22.96;35.88
60874;BME280;46715;40.642;-7.920;2023-08-08T04:35:32;95888.53;;;23.02;35.66
60874;BME280;46715;40.642;-7.920;2023-08-08T04:37:32;95883.41;;;23.13;34.74
60874;BME280;46715;40.642;-7.920;2023-08-08T04:39:33;95893.06;;;23.25;34.35
60874;BME280;46715;40.642;-7.920;2023-08-08T04:41:33;95891.75;;;23.38;33.39
60874;BME280;46715;40.642;-7.920;2023-08-08T04:43:34;95899.50;;;23.51;33.56
60874;BME280;46715;40.642;-7.920;2023-08-08T04:45:35;95899.31;;;23.66;33.16
60874;BME280;46715;40.642;-7.920;2023-08-08T04:47:35;95903.25;;;23.76;32.64
60874;BME280;46715;40.642;-7.920;2023-08-08T04:49:36;95892.72;;;23.87;32.61
60874;BME280;46715;40.642;-7.920;2023-08-08T04:51:36;95890.59;;;23.96;32.48
60874;BME280;46715;40.642;-7.920;2023-08-08T04:53:37;95895.94;;;23.96;32.58
60874;BME280;46715;40.642;-7.920;2023-08-08T04:55:37;95891.34;;;23.93;32.75
60874;BME280;46715;40.642;-7.920;2023-08-08T04:57:38;95893.56;;;23.91;33.21
60874;BME280;46715;40.642;-7.920;2023-08-08T04:59:38;95904.66;;;23.93;32.87
60874;BME280;46715;40.642;-7.920;2023-08-08T05:01:39;95897.94;;;24.07;31.77
60874;BME280;46715;40.642;-7.920;2023-08-08T05:03:39;95901.41;;;24.11;32.49
60874;BME280;46715;40.642;-7.920;2023-08-08T05:05:40;95905.97;;;24.10;33.04
60874;BME280;46715;40.642;-7.920;2023-08-08T05:07:40;95901.41;;;24.11;31.88
60874;BME280;46715;40.642;-7.920;2023-08-08T05:09:41;95899.91;;;24.13;32.44
60874;BME280;46715;40.642;-7.920;2023-08-08T05:11:41;95905.38;;;24.24;31.81
60874;BME280;46715;40.642;-7.920;2023-08-08T05:13:42;95905.09;;;24.37;31.28
60874;BME280;46715;40.642;-7.920;2023-08-08T05:15:43;95905.28;;;24.55;30.85
60874;BME280;46715;40.642;-7.920;2023-08-08T05:17:43;95903.97;;;24.75;30.50
60874;BME280;46715;40.642;-7.920;2023-08-08T05:19:44;95895.34;;;24.93;29.89
60874;BME280;46715;40.642;-7.920;2023-08-08T05:21:45;95897.72;;;25.05;29.74
60874;BME280;46715;40.642;-7.920;2023-08-08T05:23:45;95903.84;;;25.09;29.89
60874;BME280;46715;40.642;-7.920;2023-08-08T05:25:46;95907.28;;;25.10;29.75
60874;BME280;46715;40.642;-7.920;2023-08-08T05:27:46;95898.94;;;25.15;29.96
60874;BME280;46715;40.642;-7.920;2023-08-08T05:29:47;95902.06;;;25.24;29.74
60874;BME280;46715;40.642;-7.920;2023-08-08T05:31:47;95899.38;;;25.24;29.37
60874;BME280;46715;40.642;-7.920;2023-08-08T05:33:48;95902.84;;;25.28;29.43
60874;BME280;46715;40.642;-7.920;2023-08-08T05:35:49;95904.38;;;25.29;29.63
60874;BME280;46715;40.642;-7.920;2023-08-08T05:37:49;95902.44;;;25.26;29.80
60874;BME280;46715;40.642;-7.920;2023-08-08T05:39:50;95906.63;;;25.27;29.76
60874;BME280;46715;40.642;-7.920;2023-08-08T05:41:50;95905.19;;;25.37;29.69
60874;BME280;46715;40.642;-7.920;2023-08-08T05:43:52;95904.06;;;25.42;29.62
60874;BME280;46715;40.642;-7.920;2023-08-08T05:45:52;95905.63;;;25.43;29.42
60874;BME280;46715;40.642;-7.920;2023-08-08T05:47:53;95899.53;;;25.46;29.55
60874;BME280;46715;40.642;-7.920;2023-08-08T05:49:54;95903.34;;;25.48;29.41
60874;BME280;46715;40.642;-7.920;2023-08-08T05:51:58;95899.22;;;25.58;29.07
60874;BME280;46715;40.642;-7.920;2023-08-08T05:53:58;95909.94;;;25.65;29.12
60874;BME280;46715;40.642;-7.920;2023-08-08T05:55:59;95908.06;;;25.73;29.29
60874;BME280;46715;40.642;-7.920;2023-08-08T05:57:59;95905.09;;;25.93;28.29
60874;BME280;46715;40.642;-7.920;2023-08-08T06:00:00;95905.50;;;25.98;28.44
60874;BME280;46715;40.642;-7.920;2023-08-08T06:02:00;95902.53;;;26.22;27.84
60874;BME280;46715;40.642;-7.920;2023-08-08T06:04:01;95905.63;;;26.31;27.75
60874;BME280;46715;40.642;-7.920;2023-08-08T06:06:01;95903.38;;;26.44;28.22
60874;BME280;46715;40.642;-7.920;2023-08-08T06:08:02;95905.28;;;26.47;27.74
60874;BME280;46715;40.642;-7.920;2023-08-08T06:10:04;95910.25;;;26.55;27.42
60874;BME280;46715;40.642;-7.920;2023-08-08T06:12:05;95901.84;;;26.53;27.62
60874;BME280;46715;40.642;-7.920;2023-08-08T06:14:06;95904.91;;;26.55;27.89
60874;BME280;46715;40.642;-7.920;2023-08-08T06:16:06;95902.59;;;26.54;27.61
60874;BME280;46715;40.642;-7.920;2023-08-08T06:18:07;95906.81;;;26.55;28.25
60874;BME280;46715;40.642;-7.920;2023-08-08T06:20:07;95901.47;;;26.55;28.46
60874;BME280;46715;40.642;-7.920;2023-08-08T06:22:09;95899.94;;;26.54;28.23
60874;BME280;46715;40.642;-7.920;2023-08-08T06:24:10;95905.69;;;26.56;28.16
60874;BME280;46715;40.642;-7.920;2023-08-08T06:26:10;95908.34;;;26.60;28.38
60874;BME280;46715;40.642;-7.920;2023-08-08T06:28:11;95908.78;;;26.73;28.58
60874;BME280;46715;40.642;-7.920;2023-08-08T06:30:11;95909.16;;;26.78;28.26
60874;BME280;46715;40.642;-7.920;2023-08-08T06:32:12;95901.53;;;26.77;28.51
60874;BME280;46715;40.642;-7.920;2023-08-08T06:34:12;95909.53;;;26.91;27.96
60874;BME280;46715;40.642;-7.920;2023-08-08T06:36:13;95909.16;;;27.03;27.69
60874;BME280;46715;40.642;-7.920;2023-08-08T06:38:13;95904.94;;;27.13;27.78
60874;BME280;46715;40.642;-7.920;2023-08-08T06:40:14;95913.34;;;27.08;28.17
60874;BME280;46715;40.642;-7.920;2023-08-08T06:42:15;95920.97;;;27.28;27.40
60874;BME280;46715;40.642;-7.920;2023-08-08T06:44:27;95916.03;;;27.37;27.61
60874;BME280;46715;40.642;-7.920;2023-08-08T06:46:27;95913.72;;;27.43;27.37
60874;BME280;46715;40.642;-7.920;2023-08-08T06:48:28;95916.00;;;27.44;27.21
60874;BME280;46715;40.642;-7.920;2023-08-08T06:50:29;95915.63;;;27.46;27.64
60874;BME280;46715;40.642;-7.920;2023-08-08T06:52:29;95913.34;;;27.48;27.85
60874;BME280;46715;40.642;-7.920;2023-08-08T06:54:30;95907.22;;;27.51;28.38
60874;BME280;46715;40.642;-7.920;2023-08-08T06:56:30;95911.41;;;27.48;28.92
60874;BME280;46715;40.642;-7.920;2023-08-08T06:58:31;95914.06;;;27.63;28.00
60874;BME280;46715;40.642;-7.920;2023-08-08T07:00:31;95915.25;;;27.54;28.55
60874;BME280;46715;40.642;-7.920;2023-08-08T07:02:32;95909.84;;;27.58;27.93
60874;BME280;46715;40.642;-7.920;2023-08-08T07:04:32;95918.28;;;27.60;27.78
60874;BME280;46715;40.642;-7.920;2023-08-08T07:06:33;95930.84;;;27.78;27.89
60874;BME280;46715;40.642;-7.920;2023-08-08T07:08:33;95923.19;;;27.76;28.75
60874;BME280;46715;40.642;-7.920;2023-08-08T07:10:34;95915.91;;;27.80;28.22
60874;BME280;46715;40.642;-7.920;2023-08-08T07:12:35;95915.88;;;27.87;28.20
60874;BME280;46715;40.642;-7.920;2023-08-08T07:14:36;95914.34;;;28.01;27.91
60874;BME280;46715;40.642;-7.920;2023-08-08T07:16:37;95915.47;;;28.03;28.53
60874;BME280;46715;40.642;-7.920;2023-08-08T07:18:37;95917.72;;;28.16;27.96
60874;BME280;46715;40.642;-7.920;2023-08-08T07:20:38;95915.66;;;28.45;27.15
60874;BME280;46715;40.642;-7.920;2023-08-08T07:22:39;95916.03;;;28.44;27.79
60874;BME280;46715;40.642;-7.920;2023-08-08T07:24:40;95920.56;;;28.57;27.14
60874;BME280;46715;40.642;-7.920;2023-08-08T07:26:40;95927.34;;;28.77;27.04
60874;BME280;46715;40.642;-7.920;2023-08-08T07:28:41;95924.53;;;28.95;27.20
60874;BME280;46715;40.642;-7.920;2023-08-08T07:30:41;95932.47;;;29.05;27.00
60874;BME280;46715;40.642;-7.920;2023-08-08T07:32:42;95931.09;;;29.39;25.91
60874;BME280;46715;40.642;-7.920;2023-08-08T07:34:42;95930.13;;;29.95;26.00
60874;BME280;46715;40.642;-7.920;2023-08-08T07:36:43;95925.59;;;30.77;25.49
60874;BME280;46715;40.642;-7.920;2023-08-08T07:38:43;95926.41;;;31.69;23.79
60874;BME280;46715;40.642;-7.920;2023-08-08T07:40:44;95922.19;;;32.44;23.72
60874;BME280;46715;40.642;-7.920;2023-08-08T07:42:46;95925.00;;;33.23;22.71
60874;BME280;46715;40.642;-7.920;2023-08-08T07:44:47;95927.19;;;33.12;22.95
60874;BME280;46715;40.642;-7.920;2023-08-08T07:46:47;95927.13;;;33.32;22.11
60874;BME280;46715;40.642;-7.920;2023-08-08T07:48:48;95932.41;;;33.36;21.81
60874;BME280;46715;40.642;-7.920;2023-08-08T07:50:48;95930.81;;;33.68;21.67
60874;BME280;46715;40.642;-7.920;2023-08-08T07:52:49;95929.91;;;34.42;20.54
60874;BME280;46715;40.642;-7.920;2023-08-08T07:54:50;95935.97;;;34.98;20.20
60874;BME280;46715;40.642;-7.920;2023-08-08T07:56:50;95928.44;;;35.85;19.69
60874;BME280;46715;40.642;-7.920;2023-08-08T07:58:51;95934.03;;;36.44;19.01
60874;BME280;46715;40.642;-7.920;2023-08-08T08:00:51;95931.81;;;37.11;18.67
60874;BME280;46715;40.642;-7.920;2023-08-08T08:02:53;95941.66;;;37.55;18.05
60874;BME280;46715;40.642;-7.920;2023-08-08T08:04:53;95948.16;;;37.85;17.68
60874;BME280;46715;40.642;-7.920;2023-08-08T08:06:54;95947.66;;;38.06;18.08
60874;BME280;46715;40.642;-7.920;2023-08-08T08:08:54;95945.56;;;38.52;17.33
60874;BME280;46715;40.642;-7.920;2023-08-08T08:10:55;95947.91;;;38.35;17.24
60874;BME280;46715;40.642;-7.920;2023-08-08T08:12:56;95945.88;;;37.84;17.87
60874;BME280;46715;40.642;-7.920;2023-08-08T08:14:58;95946.19;;;37.40;17.77
60874;BME280;46715;40.642;-7.920;2023-08-08T08:16:59;95951.03;;;37.54;17.91
60874;BME280;46715;40.642;-7.920;2023-08-08T08:18:59;95959.25;;;38.34;17.61
60874;BME280;46715;40.642;-7.920;2023-08-08T08:21:00;95961.53;;;39.27;17.30
60874;BME280;46715;40.642;-7.920;2023-08-08T08:23:00;95956.13;;;39.81;16.47
60874;BME280;46715;40.642;-7.920;2023-08-08T08:25:01;95958.88;;;39.96;16.44
60874;BME280;46715;40.642;-7.920;2023-08-08T08:27:01;95964.72;;;40.33;16.28
60874;BME280;46715;40.642;-7.920;2023-08-08T08:29:02;95962.78;;;40.69;16.30
60874;BME280;46715;40.642;-7.920;2023-08-08T08:31:06;95960.72;;;40.64;15.80
60874;BME280;46715;40.642;-7.920;2023-08-08T08:33:07;95955.81;;;40.89;15.56
60874;BME280;46715;40.642;-7.920;2023-08-08T08:35:08;95956.41;;;40.93;15.72
60874;BME280;46715;40.642;-7.920;2023-08-08T08:37:08;95957.63;;;41.13;15.64
60874;BME280;46715;40.642;-7.920;2023-08-08T08:39:09;95954.06;;;41.27;15.24
60874;BME280;46715;40.642;-7.920;2023-08-08T08:41:10;95956.47;;;40.99;15.62
60874;BME280;46715;40.642;-7.920;2023-08-08T08:43:12;95955.28;;;40.85;15.64
60874;BME280;46715;40.642;-7.920;2023-08-08T08:45:13;95951.34;;;41.06;15.80
60874;BME280;46715;40.642;-7.920;2023-08-08T08:47:14;95958.31;;;41.28;15.07
60874;BME280;46715;40.642;-7.920;2023-08-08T08:49:15;95947.50;;;41.19;15.19
60874;BME280;46715;40.642;-7.920;2023-08-08T08:51:20;95962.28;;;41.48;15.30
60874;BME280;46715;40.642;-7.920;2023-08-08T08:53:21;95958.31;;;41.49;15.26
60874;BME280;46715;40.642;-7.920;2023-08-08T08:55:22;95959.16;;;41.81;15.17
60874;BME280;46715;40.642;-7.920;2023-08-08T08:57:23;95955.00;;;41.86;14.95
60874;BME280;46715;40.642;-7.920;2023-08-08T08:59:24;95957.22;;;40.99;15.83
60874;BME280;46715;40.642;-7.920;2023-08-08T09:01:25;95961.22;;;40.03;16.75
60874;BME280;46715;40.642;-7.920;2023-08-08T09:03:27;95961.91;;;39.19;17.65
60874;BME280;46715;40.642;-7.920;2023-08-08T09:05:28;95964.91;;;38.97;18.06
60874;BME280;46715;40.642;-7.920;2023-08-08T09:07:29;95963.84;;;40.27;16.89
60874;BME280;46715;40.642;-7.920;2023-08-08T09:09:32;95968.47;;;40.36;16.53
60874;BME280;46715;40.642;-7.920;2023-08-08T09:11:35;95956.09;;;40.91;15.89
60874;BME280;46715;40.642;-7.920;2023-08-08T09:13:37;95968.44;;;41.22;16.06
60874;BME280;46715;40.642;-7.920;2023-08-08T09:15:38;95961.13;;;41.54;15.53
60874;BME280;46715;40.642;-7.920;2023-08-08T09:17:40;95957.94;;;41.82;15.63
60874;BME280;46715;40.642;-7.920;2023-08-08T09:19:42;95961.63;;;42.05;15.25
60874;BME280;46715;40.642;-7.920;2023-08-08T09:21:43;95960.59;;;41.50;15.55
60874;BME280;46715;40.642;-7.920;2023-08-08T09:23:44;95966.19;;;41.88;15.90
60874;BME280;46715;40.642;-7.920;2023-08-08T09:25:44;95968.31;;;42.31;14.93
60874;BME280;46715;40.642;-7.920;2023-08-08T09:27:45;95965.97;;;42.50;14.63
60874;BME280;46715;40.642;-7.920;2023-08-08T09:29:46;95964.38;;;42.05;15.17
60874;BME280;46715;40.642;-7.920;2023-08-08T09:31:46;95960.16;;;42.36;15.30
60874;BME280;46715;40.642;-7.920;2023-08-08T09:33:47;95969.16;;;42.42;15.06
60874;BME280;46715;40.642;-7.920;2023-08-08T09:35:49;95958.50;;;42.50;14.68
60874;BME280;46715;40.642;-7.920;2023-08-08T09:37:51;95963.78;;;42.59;14.79
60874;BME280;46715;40.642;-7.920;2023-08-08T09:39:55;95955.28;;;42.95;14.38
60874;BME280;46715;40.642;-7.920;2023-08-08T09:41:57;95965.75;;;42.97;14.04
60874;BME280;46715;40.642;-7.920;2023-08-08T09:43:58;95960.00;;;42.19;14.99
60874;BME280;46715;40.642;-7.920;2023-08-08T09:45:59;95956.88;;;42.32;15.15
60874;BME280;46715;40.642;-7.920;2023-08-08T09:47:59;95966.28;;;43.01;14.44
60874;BME280;46715;40.642;-7.920;2023-08-08T09:50:00;95957.41;;;43.23;14.22
60874;BME280;46715;40.642;-7.920;2023-08-08T09:52:02;95959.53;;;43.56;13.81
60874;BME280;46715;40.642;-7.920;2023-08-08T09:54:03;95960.59;;;43.76;14.08
60874;BME280;46715;40.642;-7.920;2023-08-08T09:56:04;95960.66;;;43.27;14.07
60874;BME280;46715;40.642;-7.920;2023-08-08T09:58:05;95967.38;;;43.20;14.21
60874;BME280;46715;40.642;-7.920;2023-08-08T10:00:08;95964.88;;;44.00;13.64
60874;BME280;46715;40.642;-7.920;2023-08-08T10:02:16;95966.38;;;44.12;12.76
60874;BME280;46715;40.642;-7.920;2023-08-08T10:04:16;95963.94;;;43.42;12.56
60874;BME280;46715;40.642;-7.920;2023-08-08T10:06:18;95960.81;;;43.84;12.96
60874;BME280;46715;40.642;-7.920;2023-08-08T10:08:18;95963.56;;;43.78;13.95
60874;BME280;46715;40.642;-7.920;2023-08-08T10:10:19;95961.81;;;43.75;13.91
60874;BME280;46715;40.642;-7.920;2023-08-08T10:12:21;95969.78;;;43.73;14.02
60874;BME280;46715;40.642;-7.920;2023-08-08T10:14:28;95960.63;;;44.04;13.23
60874;BME280;46715;40.642;-7.920;2023-08-08T10:16:31;95954.31;;;43.64;12.88
60874;BME280;46715;40.642;-7.920;2023-08-08T10:18:32;95955.50;;;42.86;13.45
60874;BME280;46715;40.642;-7.920;2023-08-08T10:20:32;95953.97;;;43.34;13.49
60874;BME280;46715;40.642;-7.920;2023-08-08T10:22:36;95954.97;;;43.42;13.59
60874;BME280;46715;40.642;-7.920;2023-08-08T10:24:36;95961.13;;;43.91;13.67
60874;BME280;46715;40.642;-7.920;2023-08-08T10:27:26;95960.38;;;44.25;13.08
60874;BME280;46715;40.642;-7.920;2023-08-08T10:29:02;95968.34;;;44.23;13.90
60874;BME280;46715;40.642;-7.920;2023-08-08T10:31:03;95969.34;;;44.71;13.18
60874;BME280;46715;40.642;-7.920;2023-08-08T10:33:15;95965.88;;;44.42;12.92